Time;durP1;ratioP1;P1;durP2;ratioP2;P2;SDS_P1;SDS_P2;PMS_P1;PMS_P2;Temp;Humidity;BMP_temperature;BMP_pressure;BME280_temperature;BME280_humidity;BME280_pressure;Samples;Min_cycle;Max_cycle;Signal;HPM_P1;HPM_P2
2021/08/16 00:01:01;;;;;;;0.88;0.88;;;25.60;59.20;;;;;;5031312;28;20473;-75
2021/08/16 00:03:26;;;;;;;1.30;1.20;;;25.50;59.30;;;;;;5031144;28;20045;-77
2021/08/16 00:05:52;;;;;;;1.08;1.00;;;25.60;61.70;;;;;;5031470;28;20025;-77
2021/08/16 00:08:18;;;;;;;0.98;0.88;;;25.80;61.20;;;;;;5031436;28;20423;-77
2021/08/16 00:10:44;;;;;;;1.67;1.13;;;25.70;61.80;;;;;;5031170;28;20707;-76
2021/08/16 00:13:09;;;;;;;0.70;0.70;;;25.80;61.90;;;;;;5031268;28;20022;-76
2021/08/16 00:15:35;;;;;;;4.28;1.48;;;25.80;63.50;;;;;;5031360;28;20044;-77
2021/08/16 00:18:01;;;;;;;0.65;0.65;;;25.80;61.90;;;;;;5030972;28;20025;-77
2021/08/16 00:20:28;;;;;;;0.50;0.50;;;25.90;61.80;;;;;;5031424;28;20029;-78
2021/08/16 00:22:54;;;;;;;0.50;0.50;;;25.90;61.30;;;;;;5030893;28;20091;-76
2021/08/16 00:25:20;;;;;;;1.58;0.73;;;25.90;63.20;;;;;;5030790;28;20017;-78
2021/08/16 00:27:46;;;;;;;1.30;1.20;;;26.00;61.60;;;;;;5031074;28;20032;-76
2021/08/16 00:30:12;;;;;;;0.50;0.50;;;25.90;63.40;;;;;;5031202;28;20059;-76
2021/08/16 00:32:38;;;;;;;0.80;0.80;;;25.90;61.50;;;;;;5030656;28;20022;-79
2021/08/16 00:35:04;;;;;;;0.60;0.60;;;25.90;63.20;;;;;;5031355;28;20028;-75
2021/08/16 00:37:29;;;;;;;0.93;0.90;;;25.80;63.40;;;;;;5030674;28;20087;-76
2021/08/16 00:39:55;;;;;;;8.63;2.08;;;25.80;61.20;;;;;;5013159;28;20026;-77
2021/08/16 00:42:21;;;;;;;1.30;0.93;;;25.80;61.30;;;;;;5030663;28;20824;-78
2021/08/16 00:44:47;;;;;;;0.80;0.80;;;25.80;62.90;;;;;;5030747;28;20025;-79
2021/08/16 00:47:15;;;;;;;0.75;0.75;;;25.80;62.00;;;;;;5029606;28;20033;-77
2021/08/16 00:49:40;;;;;;;1.17;1.08;;;25.80;61.30;;;;;;5030751;28;20053;-76
2021/08/16 00:52:07;;;;;;;0.85;0.85;;;25.60;62.70;;;;;;5030558;28;20041;-76
2021/08/16 00:54:32;;;;;;;0.70;0.70;;;25.60;61.70;;;;;;5030878;28;20017;-79
2021/08/16 00:57:02;;;;;;;0.80;0.80;;;25.60;63.10;;;;;;5030338;28;20362;-79
2021/08/16 00:59:30;;;;;;;1.13;1.02;;;25.50;62.40;;;;;;5031074;28;20025;-78
2021/08/16 01:01:56;;;;;;;0.65;0.65;;;25.50;62.70;;;;;;5030478;28;20038;-78
2021/08/16 01:04:23;;;;;;;2.33;1.67;;;25.40;62.60;;;;;;5030479;28;20039;-77
2021/08/16 01:06:49;;;;;;;2.75;2.03;;;25.50;62.80;;;;;;5030519;28;20029;-78
2021/08/16 01:09:17;;;;;;;1.10;1.00;;;25.50;62.80;;;;;;5030272;28;20363;-78
2021/08/16 01:11:43;;;;;;;2.28;1.70;;;25.10;61.10;;;;;;5029982;28;20057;-75
2021/08/16 01:14:09;;;;;;;1.50;1.40;;;25.00;60.50;;;;;;5030759;28;20017;-79
2021/08/16 01:16:34;;;;;;;2.03;1.70;;;24.90;61.40;;;;;;5030300;28;20386;-79
2021/08/16 01:19:00;;;;;;;1.38;1.27;;;24.80;62.00;;;;;;5030293;28;20057;-79
2021/08/16 01:21:26;;;;;;;3.88;2.05;;;24.80;61.80;;;;;;5030321;28;20037;-80
2021/08/16 01:23:52;;;;;;;1.42;1.23;;;24.80;62.10;;;;;;5030056;28;20120;-77
2021/08/16 01:26:18;;;;;;;0.77;0.77;;;24.70;62.40;;;;;;5030225;28;20083;-78
2021/08/16 01:28:44;;;;;;;3.83;2.15;;;24.70;62.90;;;;;;5029587;28;20053;-79
2021/08/16 01:31:10;;;;;;;1.98;1.63;;;24.90;63.50;;;;;;5029996;28;20029;-80
2021/08/16 01:33:38;;;;;;;0.80;0.80;;;25.00;63.50;;;;;;5029261;28;20079;-78
2021/08/16 01:36:04;;;;;;;2.38;1.83;;;25.00;63.40;;;;;;5011830;28;20778;-80
2021/08/16 01:38:33;;;;;;;1.17;1.08;;;24.40;64.10;;;;;;5029364;28;20049;-79
2021/08/16 01:40:59;;;;;;;5.13;1.45;;;24.90;64.00;;;;;;5029121;28;20368;-79
2021/08/16 01:43:26;;;;;;;1.45;1.35;;;24.30;64.30;;;;;;5029331;28;20805;-80
2021/08/16 01:45:52;;;;;;;1.23;1.13;;;24.10;65.80;;;;;;5011948;28;20056;-78
2021/08/16 01:48:18;;;;;;;0.73;0.73;;;24.40;65.10;;;;;;5011729;28;20061;-78
2021/08/16 01:50:44;;;;;;;0.82;0.65;;;24.30;65.10;;;;;;5011620;28;20087;-76
2021/08/16 01:53:12;;;;;;;0.90;0.90;;;24.20;65.30;;;;;;5029330;28;20030;-78
2021/08/16 01:55:38;;;;;;;1.08;0.98;;;24.60;65.30;;;;;;5029513;28;20033;-78
2021/08/16 01:58:04;;;;;;;0.63;0.63;;;24.80;64.10;;;;;;5029382;28;20108;-79
2021/08/16 02:00:30;;;;;;;0.93;0.90;;;24.90;63.50;;;;;;5034133;28;20022;-82
2021/08/16 02:02:56;;;;;;;0.90;0.90;;;24.70;64.10;;;;;;5033569;28;20084;-80
2021/08/16 02:05:22;;;;;;;1.30;1.20;;;24.60;64.60;;;;;;5033852;28;20033;-80
2021/08/16 02:07:47;;;;;;;0.90;0.90;;;24.60;63.80;;;;;;5033782;28;20036;-77
2021/08/16 02:10:13;;;;;;;0.95;0.95;;;24.80;63.50;;;;;;5033720;28;20041;-80
2021/08/16 02:12:39;;;;;;;0.63;0.63;;;25.00;63.20;;;;;;5033378;28;20111;-82
2021/08/16 02:15:08;;;;;;;0.82;0.82;;;24.90;63.60;;;;;;5033555;28;20038;-81
2021/08/16 02:17:33;;;;;;;0.98;0.90;;;24.90;63.80;;;;;;5015939;28;20540;-80
2021/08/16 02:20:00;;;;;;;0.95;0.95;;;24.90;64.00;;;;;;5033692;28;20033;-84
2021/08/16 02:22:26;;;;;;;0.85;0.80;;;25.00;64.00;;;;;;5015546;28;20037;-79
2021/08/16 02:24:52;;;;;;;1.23;1.13;;;24.90;63.80;;;;;;5033558;28;20029;-79
2021/08/16 02:27:18;;;;;;;1.25;1.15;;;24.80;63.80;;;;;;5033108;28;20528;-79
2021/08/16 02:29:45;;;;;;;0.60;0.60;;;24.80;64.10;;;;;;5033259;28;20052;-79
2021/08/16 02:32:11;;;;;;;1.23;1.17;;;24.70;64.60;;;;;;5033128;28;20087;-80
2021/08/16 02:34:37;;;;;;;1.63;1.00;;;24.70;65.20;;;;;;5033467;28;20424;-81
2021/08/16 02:37:03;;;;;;;0.80;0.80;;;24.70;64.90;;;;;;5033063;28;20060;-80
2021/08/16 02:39:29;;;;;;;2.78;2.05;;;24.60;64.40;;;;;;5033123;28;20037;-80
2021/08/16 02:41:55;;;;;;;0.70;0.70;;;24.60;64.30;;;;;;5032510;28;20036;-81
2021/08/16 02:44:20;;;;;;;2.30;1.65;;;24.80;64.70;;;;;;5032839;28;20084;-78
2021/08/16 02:46:46;;;;;;;0.70;0.70;;;24.50;64.90;;;;;;5015301;28;20083;-77
2021/08/16 02:49:12;;;;;;;0.82;0.82;;;24.60;65.10;;;;;;5032854;28;20037;-77
2021/08/16 02:51:37;;;;;;;1.25;1.15;;;24.60;64.90;;;;;;5015295;28;20032;-81
2021/08/16 02:54:03;;;;;;;1.17;1.08;;;23.60;65.00;;;;;;5033140;28;20547;-78
2021/08/16 02:56:29;;;;;;;1.13;1.05;;;23.00;67.40;;;;;;5032929;28;20036;-79
2021/08/16 02:58:55;;;;;;;1.00;1.00;;;23.30;67.70;;;;;;5032602;28;20108;-80
2021/08/16 03:01:20;;;;;;;1.27;1.17;;;23.70;66.50;;;;;;5033128;28;20469;-81
2021/08/16 03:03:46;;;;;;;0.95;0.95;;;23.10;67.50;;;;;;5032680;28;20065;-79
2021/08/16 03:06:12;;;;;;;1.88;1.73;;;23.40;66.60;;;;;;5032573;28;20037;-79
2021/08/16 03:08:38;;;;;;;0.70;0.70;;;23.40;66.40;;;;;;5032684;28;20038;-80
2021/08/16 03:11:05;;;;;;;1.85;1.73;;;22.90;67.50;;;;;;5031247;28;20052;-81
2021/08/16 03:13:32;;;;;;;0.80;0.80;;;22.80;68.10;;;;;;5032468;28;20025;-78
2021/08/16 03:15:58;;;;;;;2.00;1.80;;;22.80;68.40;;;;;;5015016;28;20033;-78
2021/08/16 03:18:24;;;;;;;2.80;2.25;;;22.60;69.50;;;;;;5032658;28;20052;-76
2021/08/16 03:20:52;;;;;;;1.15;1.05;;;22.90;69.00;;;;;;5032341;28;20022;-79
2021/08/16 03:23:19;;;;;;;2.03;1.83;;;23.40;68.60;;;;;;5032133;28;20148;-82
2021/08/16 03:25:44;;;;;;;1.40;1.30;;;23.90;68.00;;;;;;5032489;28;20017;-82
2021/08/16 03:28:10;;;;;;;0.90;0.90;;;24.00;67.00;;;;;;5032063;28;20101;-77
2021/08/16 03:30:36;;;;;;;0.93;0.93;;;24.20;66.80;;;;;;5032577;28;20493;-78
2021/08/16 03:33:01;;;;;;;1.00;0.90;;;24.20;66.00;;;;;;5032002;28;20448;-80
2021/08/16 03:35:27;;;;;;;0.70;0.70;;;24.30;66.60;;;;;;5031945;28;20559;-76
2021/08/16 03:37:53;;;;;;;1.77;1.65;;;24.30;66.90;;;;;;5013950;28;20037;-80
2021/08/16 03:40:19;;;;;;;1.52;1.38;;;24.20;66.20;;;;;;5031632;28;20477;-76
2021/08/16 03:42:44;;;;;;;0.90;0.90;;;24.20;67.10;;;;;;5014092;28;20073;-80
2021/08/16 03:45:16;;;;;;;1.05;1.00;;;24.10;66.60;;;;;;5014103;28;20499;-78
2021/08/16 03:47:42;;;;;;;1.23;1.13;;;24.00;67.20;;;;;;5031816;28;20396;-80
2021/08/16 03:50:09;;;;;;;0.70;0.70;;;24.00;67.70;;;;;;5014034;28;20024;-78
2021/08/16 03:52:35;;;;;;;1.33;1.23;;;24.00;68.20;;;;;;5031405;28;20485;-79
2021/08/16 03:55:01;;;;;;;1.63;1.52;;;24.00;68.00;;;;;;5031672;28;20484;-78
2021/08/16 03:57:27;;;;;;;2.25;2.05;;;24.00;68.40;;;;;;5031730;28;20105;-80
2021/08/16 03:59:53;;;;;;;0.98;0.88;;;23.90;68.90;;;;;;5031359;28;20477;-80
2021/08/16 04:02:18;;;;;;;1.30;1.20;;;23.90;69.00;;;;;;5031745;28;20482;-81
2021/08/16 04:04:44;;;;;;;0.82;0.82;;;23.90;69.90;;;;;;5013933;28;20119;-80
2021/08/16 04:07:11;;;;;;;0.90;0.90;;;23.90;69.60;;;;;;5031265;28;20045;-80
2021/08/16 04:09:37;;;;;;;1.17;1.08;;;23.80;69.50;;;;;;5031245;28;20021;-80
2021/08/16 04:12:03;;;;;;;1.10;1.00;;;23.90;69.50;;;;;;5031413;28;20057;-79
2021/08/16 04:14:29;;;;;;;0.70;0.70;;;23.80;70.10;;;;;;5031520;28;20072;-79
2021/08/16 04:16:56;;;;;;;5.13;2.15;;;23.90;70.50;;;;;;5031153;28;20073;-79
2021/08/16 04:19:22;;;;;;;1.10;1.05;;;23.90;70.40;;;;;;5031369;28;20098;-79
2021/08/16 04:21:48;;;;;;;1.85;1.73;;;23.90;70.50;;;;;;5013259;28;20025;-80
2021/08/16 04:24:14;;;;;;;0.70;0.70;;;23.90;70.40;;;;;;5031082;28;20033;-79
2021/08/16 04:26:40;;;;;;;2.25;1.95;;;23.90;70.70;;;;;;5031067;28;20022;-79
2021/08/16 04:29:06;;;;;;;2.22;1.50;;;23.90;71.20;;;;;;5031014;28;20026;-78
2021/08/16 04:31:32;;;;;;;1.40;1.30;;;23.90;71.50;;;;;;5031572;28;20038;-78
2021/08/16 04:33:58;;;;;;;10.00;1.58;;;23.90;70.90;;;;;;5031112;28;20477;-81
2021/08/16 04:36:23;;;;;;;1.42;1.33;;;23.90;70.70;;;;;;5013166;28;20052;-77
2021/08/16 04:38:49;;;;;;;1.02;0.95;;;23.90;70.50;;;;;;5030566;28;20056;-78
2021/08/16 04:41:15;;;;;;;0.90;0.90;;;23.90;70.40;;;;;;5030960;28;20044;-79
2021/08/16 04:43:41;;;;;;;0.80;0.80;;;24.00;70.30;;;;;;5031133;28;20045;-80
2021/08/16 04:46:06;;;;;;;0.85;0.85;;;24.10;70.20;;;;;;5031134;28;20025;-80
2021/08/16 04:48:32;;;;;;;1.40;1.30;;;24.10;70.00;;;;;;5030750;28;20038;-79
2021/08/16 04:50:58;;;;;;;1.50;1.27;;;24.10;69.90;;;;;;5030713;28;20027;-80
2021/08/16 04:53:24;;;;;;;0.93;0.93;;;24.20;69.90;;;;;;5030753;28;20068;-80
2021/08/16 04:55:49;;;;;;;1.55;1.45;;;24.20;69.20;;;;;;5030215;28;20048;-80
2021/08/16 04:58:15;;;;;;;0.85;0.85;;;24.20;69.10;;;;;;5030738;28;20087;-80
2021/08/16 05:00:41;;;;;;;2.35;2.15;;;24.20;69.70;;;;;;5030886;28;20454;-78
2021/08/16 05:03:07;;;;;;;1.17;1.08;;;24.20;69.60;;;;;;5030288;28;20033;-77
2021/08/16 05:05:33;;;;;;;0.70;0.70;;;24.30;70.00;;;;;;5030611;28;20084;-78
2021/08/16 05:08:00;;;;;;;1.10;1.00;;;24.20;69.90;;;;;;5012704;28;20553;-81
2021/08/16 05:10:28;;;;;;;1.63;1.52;;;23.90;69.80;;;;;;5030407;28;20128;-81
2021/08/16 05:12:57;;;;;;;2.47;2.28;;;24.10;70.60;;;;;;5012707;28;20029;-82
2021/08/16 05:15:23;;;;;;;14.77;6.65;;;24.10;71.00;;;;;;5030588;28;20116;-79
2021/08/16 05:17:49;;;;;;;2.22;2.03;;;24.20;70.20;;;;;;5030161;28;20108;-79
2021/08/16 05:20:16;;;;;;;1.85;1.38;;;24.20;69.40;;;;;;5030238;28;20032;-77
2021/08/16 05:22:44;;;;;;;0.88;0.88;;;24.30;69.50;;;;;;5030121;28;20130;-76
2021/08/16 05:25:13;;;;;;;3.33;3.03;;;24.30;69.20;;;;;;5030064;28;20025;-78
2021/08/16 05:27:40;;;;;;;12.13;6.75;;;24.40;69.00;;;;;;5029818;28;20032;-80
2021/08/16 05:30:06;;;;;;;9.45;8.45;;;24.40;68.70;;;;;;5030136;28;20025;-79
2021/08/16 05:32:32;;;;;;;4.63;4.20;;;24.40;68.70;;;;;;5030227;28;20041;-81
2021/08/16 05:34:58;;;;;;;1.25;1.17;;;24.40;68.80;;;;;;5015685;28;20396;-81
2021/08/16 05:37:24;;;;;;;3.42;1.65;;;24.40;69.00;;;;;;5033366;28;20085;-83
2021/08/16 05:39:49;;;;;;;3.92;2.25;;;24.50;68.50;;;;;;5033967;28;20103;-84
2021/08/16 05:42:16;;;;;;;1.40;1.30;;;24.50;68.90;;;;;;5034143;28;20817;-88
2021/08/16 05:44:42;;;;;;;1.40;1.30;;;24.50;68.70;;;;;;5015813;28;20041;-80
2021/08/16 05:47:08;;;;;;;12.65;2.95;;;24.60;68.90;;;;;;5016112;28;20026;-82
2021/08/16 05:49:34;;;;;;;1.67;1.58;;;24.70;68.20;;;;;;5015682;28;20026;-80
2021/08/16 05:52:01;;;;;;;0.90;0.90;;;24.70;68.20;;;;;;5033383;28;20381;-83
2021/08/16 05:54:27;;;;;;;0.95;0.95;;;24.90;67.80;;;;;;5032636;28;20032;-78
2021/08/16 05:56:53;;;;;;;1.63;1.35;;;24.80;68.60;;;;;;5015572;28;20022;-86
2021/08/16 05:59:19;;;;;;;1.00;1.00;;;24.80;68.20;;;;;;5015889;28;20049;-85
2021/08/16 06:01:45;;;;;;;7.22;3.00;;;24.80;68.30;;;;;;5033578;28;20138;-82
2021/08/16 06:04:10;;;;;;;1.10;1.00;;;25.00;68.70;;;;;;5015691;28;20040;-83
2021/08/16 06:06:36;;;;;;;0.60;0.60;;;25.00;68.40;;;;;;5033291;28;20036;-81
2021/08/16 06:09:03;;;;;;;3.63;2.15;;;25.10;68.20;;;;;;5015615;28;20029;-82
2021/08/16 06:11:30;;;;;;;1.55;1.45;;;25.20;68.20;;;;;;5015459;28;20045;-83
2021/08/16 06:13:56;;;;;;;2.63;2.05;;;25.20;68.10;;;;;;5033512;28;20207;-84
2021/08/16 06:16:22;;;;;;;3.15;2.13;;;25.20;68.40;;;;;;5013773;28;20104;-85
2021/08/16 06:18:48;;;;;;;1.52;1.42;;;25.40;68.80;;;;;;5032591;28;20032;-85
2021/08/16 06:21:14;;;;;;;1.13;1.02;;;25.50;68.90;;;;;;5031528;28;20112;-86
2021/08/16 06:23:40;;;;;;;1.38;1.27;;;25.50;68.60;;;;;;5031922;28;20033;-81
2021/08/16 06:26:07;;;;;;;0.98;0.93;;;25.50;68.70;;;;;;5014713;28;20032;-85
2021/08/16 06:28:34;;;;;;;1.90;1.73;;;25.50;68.90;;;;;;5033015;28;20508;-84
2021/08/16 06:30:59;;;;;;;2.35;1.20;;;25.70;68.40;;;;;;5033170;28;20156;-86
2021/08/16 06:33:25;;;;;;;1.33;1.23;;;25.80;67.30;;;;;;5033415;28;20089;-87
2021/08/16 06:35:53;;;;;;;3.00;2.25;;;25.60;68.30;;;;;;5015329;28;20063;-83
2021/08/16 06:38:23;;;;;;;0.98;0.93;;;25.60;68.70;;;;;;5033035;28;20175;-83
2021/08/16 06:40:51;;;;;;;1.10;1.00;;;25.70;69.30;;;;;;5033075;28;20028;-85
2021/08/16 06:43:17;;;;;;;3.53;2.28;;;25.70;70.00;;;;;;5014730;28;20096;-84
2021/08/16 06:45:43;;;;;;;0.82;0.82;;;25.70;70.70;;;;;;5015278;28;20187;-80
2021/08/16 06:48:09;;;;;;;1.85;0.95;;;25.90;70.00;;;;;;5033058;28;20029;-86
2021/08/16 06:50:35;;;;;;;1.35;1.25;;;26.00;70.50;;;;;;5015056;28;20028;-84
2021/08/16 06:53:01;;;;;;;10.25;1.70;;;26.00;69.40;;;;;;5032354;28;20160;-86
2021/08/16 06:55:26;;;;;;;1.10;1.00;;;26.10;69.20;;;;;;5032714;28;20191;-83
2021/08/16 06:57:52;;;;;;;1.25;1.15;;;26.10;69.00;;;;;;5032772;28;20029;-81
2021/08/16 07:00:18;;;;;;;1.63;1.52;;;26.40;68.20;;;;;;5033445;28;20021;-86
2021/08/16 07:02:43;;;;;;;1.33;1.23;;;26.20;67.90;;;;;;5032171;28;20389;-85
2021/08/16 07:05:10;;;;;;;1.42;1.25;;;26.10;67.80;;;;;;5032684;28;20025;-85
2021/08/16 07:07:35;;;;;;;4.30;2.17;;;26.10;68.70;;;;;;5014639;28;20179;-79
2021/08/16 07:10:02;;;;;;;1.75;1.48;;;26.20;69.10;;;;;;5032715;28;20114;-85
2021/08/16 07:12:28;;;;;;;0.82;0.80;;;26.20;69.00;;;;;;5031900;28;20037;-84
2021/08/16 07:14:54;;;;;;;3.03;1.17;;;26.10;68.70;;;;;;5033047;28;20034;-82
2021/08/16 07:17:20;;;;;;;0.55;0.55;;;26.10;69.30;;;;;;5014429;28;20037;-85
2021/08/16 07:19:46;;;;;;;0.70;0.63;;;26.20;69.60;;;;;;5032447;28;20034;-87
2021/08/16 07:22:11;;;;;;;1.48;1.38;;;26.40;69.00;;;;;;5031505;28;20041;-87
2021/08/16 07:24:37;;;;;;;1.00;0.98;;;26.40;69.90;;;;;;5032248;28;20030;-83
2021/08/16 07:27:03;;;;;;;1.50;1.38;;;26.40;70.80;;;;;;5032341;28;20095;-87
2021/08/16 07:29:30;;;;;;;1.10;0.90;;;26.60;70.60;;;;;;5032091;28;20496;-86
2021/08/16 07:31:57;;;;;;;5.28;1.63;;;26.80;70.80;;;;;;5014448;28;20033;-79
2021/08/16 07:34:23;;;;;;;1.05;0.95;;;26.70;71.60;;;;;;5032304;28;20493;-83
2021/08/16 07:36:50;;;;;;;1.10;1.00;;;26.70;72.10;;;;;;5032071;28;20591;-85
2021/08/16 07:39:16;;;;;;;1.02;0.98;;;26.50;72.70;;;;;;5032467;28;20428;-88
2021/08/16 07:41:42;;;;;;;1.98;1.23;;;26.50;73.40;;;;;;5032368;28;20025;-85
2021/08/16 07:44:07;;;;;;;1.67;1.58;;;26.80;72.30;;;;;;5032530;28;20037;-81
2021/08/16 07:46:33;;;;;;;0.63;0.63;;;27.00;71.40;;;;;;5032022;28;20037;-85
2021/08/16 07:48:59;;;;;;;0.82;0.82;;;27.00;72.30;;;;;;5031864;28;20021;-87
2021/08/16 07:51:25;;;;;;;0.57;0.57;;;26.80;73.80;;;;;;5031797;28;20116;-85
2021/08/16 07:53:50;;;;;;;0.60;0.60;;;26.90;74.30;;;;;;5031525;28;20080;-82
2021/08/16 07:56:16;;;;;;;2.05;1.48;;;27.10;73.70;;;;;;5031501;28;20017;-85
2021/08/16 07:58:42;;;;;;;0.77;0.77;;;27.10;73.50;;;;;;5031637;28;20497;-86
2021/08/16 08:01:08;;;;;;;0.70;0.70;;;27.10;74.10;;;;;;5031994;28;20025;-84
2021/08/16 08:03:33;;;;;;;5.40;2.17;;;27.20;73.90;;;;;;5031063;28;20423;-84
2021/08/16 08:05:59;;;;;;;0.65;0.65;;;27.20;74.60;;;;;;5032029;28;20409;-84
2021/08/16 08:08:25;;;;;;;0.45;0.45;;;27.30;74.50;;;;;;5013562;28;20036;-87
2021/08/16 08:10:51;;;;;;;0.57;0.57;;;27.20;73.70;;;;;;5031583;28;20094;-87
2021/08/16 08:13:16;;;;;;;0.93;0.80;;;27.20;74.50;;;;;;5013624;28;20026;-87
2021/08/16 08:15:42;;;;;;;0.50;0.50;;;27.10;74.70;;;;;;5031589;28;20036;-85
2021/08/16 08:18:10;;;;;;;1.02;0.95;;;27.20;75.00;;;;;;5031403;28;20029;-83
2021/08/16 08:20:36;;;;;;;0.70;0.70;;;27.30;73.80;;;;;;5013635;28;20033;-84
2021/08/16 08:23:03;;;;;;;1.10;0.85;;;27.50;74.40;;;;;;5030530;28;20037;-82
2021/08/16 08:25:29;;;;;;;0.70;0.70;;;27.50;74.00;;;;;;5031554;28;20104;-80
2021/08/16 08:27:54;;;;;;;0.60;0.60;;;27.60;73.70;;;;;;5013213;28;20128;-87
2021/08/16 08:30:20;;;;;;;0.40;0.40;;;27.50;74.20;;;;;;5031092;28;20026;-84
2021/08/16 08:32:53;;;;;;;0.80;0.80;;;27.60;74.40;;;;;;5030731;28;20119;-83
2021/08/16 08:35:19;;;;;;;1.60;1.35;;;27.60;74.10;;;;;;5030776;28;20406;-80
2021/08/16 08:37:45;;;;;;;1.48;1.05;;;27.80;73.30;;;;;;5030477;28;20030;-83
2021/08/16 08:40:12;;;;;;;0.88;0.75;;;27.80;71.50;;;;;;5013050;28;20496;-82
2021/08/16 08:42:38;;;;;;;0.50;0.50;;;27.70;70.20;;;;;;5030589;28;20037;-83
2021/08/16 08:45:08;;;;;;;0.45;0.45;;;27.60;71.40;;;;;;5030867;28;20029;-78
2021/08/16 08:47:34;;;;;;;;;;;27.80;71.50;;;;;;5030918;28;20045;-85
2021/08/16 08:50:01;;;;;;;1.75;1.15;;;28.00;70.70;;;;;;5030666;28;19905;-83
2021/08/16 08:52:27;;;;;;;0.70;0.70;;;28.20;70.00;;;;;;5030463;28;20037;-84
2021/08/16 08:54:59;;;;;;;1.33;0.93;;;28.50;70.40;;;;;;5030755;28;20110;-83
2021/08/16 08:57:28;;;;;;;0.80;0.80;;;28.60;68.70;;;;;;5030243;28;20082;-86
2021/08/16 08:59:54;;;;;;;2.63;1.75;;;28.80;69.20;;;;;;5030267;28;20020;-82
2021/08/16 09:02:20;;;;;;;0.63;0.52;;;28.80;68.20;;;;;;5030456;28;20025;-85
2021/08/16 09:04:54;;;;;;;0.95;0.95;;;29.20;68.20;;;;;;5030688;28;20033;-80
2021/08/16 09:07:37;;;;;;;1.38;1.15;;;29.60;68.50;;;;;;5029990;28;20026;-86
2021/08/16 09:10:09;;;;;;;2.30;0.98;;;29.90;67.00;;;;;;5029663;28;20025;-81
2021/08/16 09:12:37;;;;;;;0.82;0.80;;;30.00;66.30;;;;;;5030087;28;20477;-82
2021/08/16 09:15:21;;;;;;;0.43;0.43;;;30.10;65.80;;;;;;5030300;28;20049;-80
2021/08/16 09:17:47;;;;;;;3.50;0.63;;;30.20;65.00;;;;;;5029613;28;20017;-82
2021/08/16 09:20:27;;;;;;;1.35;1.25;;;30.30;64.60;;;;;;5011076;28;20025;-82
2021/08/16 09:23:18;;;;;;;0.38;0.38;;;30.50;64.30;;;;;;5027760;28;20026;-86
2021/08/16 09:25:55;;;;;;;1.02;0.88;;;30.50;61.90;;;;;;5026894;28;20739;-78
2021/08/16 09:28:29;;;;;;;0.50;0.50;;;30.50;61.40;;;;;;5028458;28;20040;-82
2021/08/16 09:30:56;;;;;;;0.82;0.68;;;30.70;61.80;;;;;;5029084;28;20057;-81
2021/08/16 09:33:22;;;;;;;2.15;1.05;;;30.70;59.80;;;;;;5025942;28;20425;-78
2021/08/16 09:35:52;;;;;;;1.10;1.00;;;30.80;59.30;;;;;;5028764;28;20026;-77
2021/08/16 09:38:30;;;;;;;0.55;0.55;;;31.00;59.30;;;;;;5028740;28;20051;-79
2021/08/16 09:40:55;;;;;;;0.30;0.30;;;31.40;59.80;;;;;;5026248;28;20021;-86
2021/08/16 09:43:25;;;;;;;0.30;0.30;;;31.70;57.90;;;;;;5028400;28;20064;-84
2021/08/16 09:45:51;;;;;;;0.30;0.30;;;31.80;57.90;;;;;;5028668;28;20389;-77
2021/08/16 09:48:22;;;;;;;0.60;0.60;;;31.90;56.40;;;;;;5028507;28;20038;-84
2021/08/16 09:50:51;;;;;;;1.20;0.85;;;31.70;54.40;;;;;;5028479;28;20032;-84
2021/08/16 09:53:21;;;;;;;2.60;1.35;;;31.70;54.50;;;;;;5023746;28;20032;-80
2021/08/16 09:55:50;;;;;;;0.35;0.35;;;31.80;55.70;;;;;;5028694;28;20028;-83
2021/08/16 09:58:17;;;;;;;0.68;0.40;;;31.90;56.00;;;;;;5008229;28;20021;-77
2021/08/16 10:00:48;;;;;;;1.15;0.65;;;31.90;57.00;;;;;;5029236;28;20129;-82
2021/08/16 10:03:14;;;;;;;2.13;0.75;;;31.80;55.90;;;;;;5007931;28;20037;-83
2021/08/16 10:05:47;;;;;;;0.38;0.38;;;31.80;56.00;;;;;;5028651;28;20033;-79
2021/08/16 10:08:19;;;;;;;0.47;0.47;;;31.90;56.30;;;;;;5028257;28;20083;-78
2021/08/16 10:10:45;;;;;;;0.38;0.38;;;32.00;56.20;;;;;;5028417;28;20573;-79
2021/08/16 10:13:11;;;;;;;0.52;0.52;;;32.40;56.30;;;;;;5028280;28;20531;-84
2021/08/16 10:15:43;;;;;;;3.60;0.47;;;32.60;55.70;;;;;;5028824;28;20032;-83
2021/08/16 10:18:12;;;;;;;0.50;0.50;;;32.40;56.00;;;;;;5010519;28;20128;-83
2021/08/16 10:20:39;;;;;;;0.85;0.68;;;32.40;57.00;;;;;;5031013;28;20022;-81
2021/08/16 10:23:25;;;;;;;0.57;0.57;;;32.70;56.60;;;;;;5031842;28;20128;-82
2021/08/16 10:25:54;;;;;;;0.55;0.55;;;33.10;56.90;;;;;;5031750;28;20031;-81
2021/08/16 10:28:23;;;;;;;0.28;0.28;;;32.90;55.50;;;;;;5031948;28;20021;-84
2021/08/16 10:30:50;;;;;;;1.08;0.98;;;32.90;55.10;;;;;;5032410;28;20413;-78
2021/08/16 10:33:17;;;;;;;0.50;0.50;;;32.80;53.80;;;;;;5031735;28;20044;-87
2021/08/16 10:35:43;;;;;;;0.70;0.70;;;32.90;56.30;;;;;;5032286;28;20068;-81
2021/08/16 10:38:11;;;;;;;0.35;0.35;;;33.20;56.40;;;;;;5031657;28;20052;-81
2021/08/16 10:40:50;;;;;;;0.30;0.25;;;33.30;55.60;;;;;;5029427;28;20079;-85
2021/08/16 10:43:17;;;;;;;0.30;0.30;;;33.40;54.90;;;;;;5028904;28;20193;-83
2021/08/16 10:45:50;;;;;;;1.95;0.60;;;33.50;53.40;;;;;;5032428;28;20076;-80
2021/08/16 10:48:24;;;;;;;3.67;1.33;;;33.50;53.80;;;;;;5031470;28;20026;-82
2021/08/16 10:51:03;;;;;;;0.20;0.20;;;33.70;53.70;;;;;;5031517;28;20022;-79
2021/08/16 10:53:30;;;;;;;0.83;0.53;;;33.90;53.30;;;;;;5030669;28;20497;-79
2021/08/16 10:55:56;;;;;;;0.30;0.30;;;33.90;53.90;;;;;;5032987;28;20385;-81
2021/08/16 10:58:23;;;;;;;0.40;0.40;;;34.00;54.20;;;;;;5033008;28;21047;-85
2021/08/16 11:00:49;;;;;;;0.20;0.20;;;34.00;54.10;;;;;;5033317;28;20021;-77
2021/08/16 11:03:22;;;;;;;0.73;0.40;;;34.10;53.50;;;;;;5032487;28;20436;-77
2021/08/16 11:05:47;;;;;;;1.73;0.77;;;34.00;53.50;;;;;;5032668;28;20429;-75
2021/08/16 11:08:13;;;;;;;0.45;0.45;;;34.20;53.20;;;;;;5032178;28;20485;-79
2021/08/16 11:10:49;;;;;;;5.90;0.73;;;34.60;53.10;;;;;;5031856;28;20406;-79
2021/08/16 11:13:20;;;;;;;1.23;0.80;;;34.80;52.30;;;;;;5031760;28;20068;-79
2021/08/16 11:15:48;;;;;;;0.40;0.40;;;34.90;52.10;;;;;;5032186;28;20422;-77
2021/08/16 11:18:17;;;;;;;0.32;0.30;;;35.40;51.70;;;;;;5031246;28;20029;-75
2021/08/16 11:20:44;;;;;;;;;;;35.60;51.40;;;;;;5032347;28;20448;-78
2021/08/16 11:23:10;;;;;;;0.40;0.40;;;35.30;51.00;;;;;;5031509;28;19913;-76
2021/08/16 11:25:47;;;;;;;0.80;0.40;;;35.20;51.10;;;;;;5032056;28;20013;-76
2021/08/16 11:28:19;;;;;;;1.13;0.65;;;35.10;52.10;;;;;;5031807;28;20036;-79
2021/08/16 11:30:45;;;;;;;0.95;0.77;;;35.50;50.80;;;;;;5030637;28;20104;-77
2021/08/16 11:33:11;;;;;;;0.82;0.70;;;35.30;50.20;;;;;;5030255;28;20113;-77
2021/08/16 11:35:37;;;;;;;1.00;0.60;;;35.60;50.70;;;;;;5015533;28;20021;-78
2021/08/16 11:38:13;;;;;;;0.22;0.22;;;35.70;49.80;;;;;;5030278;28;20114;-79
2021/08/16 11:40:39;;;;;;;0.70;0.43;;;35.70;49.90;;;;;;5031825;28;20021;-78
2021/08/16 11:43:05;;;;;;;4.07;1.73;;;35.90;49.50;;;;;;5030866;28;20044;-79
2021/08/16 11:45:36;;;;;;;0.20;0.20;;;35.80;49.00;;;;;;5031041;28;20508;-81
2021/08/16 11:48:02;;;;;;;1.05;0.73;;;35.90;48.90;;;;;;5031471;28;20061;-76
2021/08/16 11:50:27;;;;;;;0.68;0.57;;;36.00;48.80;;;;;;5031679;28;20106;-79
2021/08/16 11:52:54;;;;;;;0.90;0.73;;;36.20;48.80;;;;;;5031665;28;20032;-77
2021/08/16 11:55:27;;;;;;;0.75;0.60;;;36.30;47.90;;;;;;5031565;28;20028;-77
2021/08/16 11:57:55;;;;;;;0.80;0.60;;;36.30;47.20;;;;;;5013298;28;20494;-78
2021/08/16 12:00:30;;;;;;;1.05;0.85;;;36.30;47.50;;;;;;5031796;28;20711;-78
2021/08/16 12:02:57;;;;;;;1.00;0.80;;;36.50;46.30;;;;;;5031155;28;20183;-79
2021/08/16 12:05:27;;;;;;;2.42;1.08;;;36.30;46.30;;;;;;5013400;28;20032;-77
2021/08/16 12:07:53;;;;;;;0.70;0.57;;;36.80;46.10;;;;;;5031041;28;20037;-77
2021/08/16 12:10:20;;;;;;;0.50;0.47;;;36.80;45.00;;;;;;5031176;28;20163;-78
2021/08/16 12:12:59;;;;;;;1.25;1.05;;;36.80;45.30;;;;;;5031163;28;20025;-77
2021/08/16 12:15:25;;;;;;;1.00;0.45;;;36.50;44.70;;;;;;5031325;28;20026;-80
2021/08/16 12:17:53;;;;;;;2.15;0.88;;;36.70;44.80;;;;;;5030759;28;20045;-78
2021/08/16 12:20:20;;;;;;;1.30;1.10;;;36.90;45.40;;;;;;5031362;28;20731;-77
2021/08/16 12:22:54;;;;;;;1.35;1.05;;;36.90;46.30;;;;;;5030754;28;20504;-77
2021/08/16 12:25:21;;;;;;;0.63;0.57;;;37.00;45.60;;;;;;5030883;28;20425;-79
2021/08/16 12:27:58;;;;;;;0.80;0.68;;;37.20;46.00;;;;;;5031066;28;20150;-79
2021/08/16 12:30:28;;;;;;;0.57;0.52;;;37.30;46.40;;;;;;5030892;28;20079;-77
2021/08/16 12:33:12;;;;;;;1.33;1.00;;;37.60;46.10;;;;;;5013060;28;20025;-77
2021/08/16 12:35:39;;;;;;;0.20;0.20;;;37.60;45.60;;;;;;5030484;28;20553;-77
2021/08/16 12:38:06;;;;;;;0.50;0.50;;;37.50;45.00;;;;;;5030594;28;20096;-78
2021/08/16 12:40:32;;;;;;;0.75;0.40;;;37.50;45.00;;;;;;5030504;28;20024;-76
2021/08/16 12:43:03;;;;;;;0.68;0.50;;;37.50;44.60;;;;;;5029916;28;20033;-78
2021/08/16 12:45:30;;;;;;;0.70;0.70;;;37.50;44.70;;;;;;5030908;28;20075;-77
2021/08/16 12:48:05;;;;;;;1.10;0.63;;;37.10;44.70;;;;;;5030336;28;20397;-77